createdAt,value
2023-02-03T00:00:25.521Z,1027.70
2023-02-03T00:00:55.262Z,1027.70
2023-02-03T00:01:26.818Z,1027.70
2023-02-03T00:01:57.821Z,1027.60
2023-02-03T00:02:28.192Z,1027.60
2023-02-03T00:02:59.567Z,1027.39
2023-02-03T00:03:30.208Z,1027.39
2023-02-03T00:04:01.278Z,1027.50
2023-02-03T00:04:32.294Z,1027.50
2023-02-03T00:05:03.639Z,1027.60
2023-02-03T00:05:34.556Z,1027.60
2023-02-03T00:06:05.584Z,1027.50
2023-02-03T00:06:36.499Z,1027.50
2023-02-03T00:07:07.804Z,1027.50
2023-02-03T00:07:38.226Z,1027.50
2023-02-03T00:08:09.198Z,1027.60
2023-02-03T00:08:40.326Z,1027.60
2023-02-03T00:09:11.339Z,1027.50
2023-02-03T00:09:42.514Z,1027.50
2023-02-03T00:10:13.788Z,1027.39
2023-02-03T00:10:44.558Z,1027.39
2023-02-03T00:11:15.471Z,1027.70
2023-02-03T00:11:46.219Z,1027.70
2023-02-03T00:12:17.829Z,1027.50
2023-02-03T00:12:48.229Z,1027.50
2023-02-03T00:13:19.319Z,1027.50
2023-02-03T00:13:50.407Z,1027.50
2023-02-03T00:14:21.225Z,1027.50
2023-02-03T00:14:52.229Z,1027.39
2023-02-03T00:15:25.723Z,1027.39
2023-02-03T00:15:54.341Z,1027.60
2023-02-03T00:16:25.322Z,1027.60
2023-02-03T00:16:56.239Z,1027.39
2023-02-03T00:17:28.118Z,1027.39
2023-02-03T00:17:58.256Z,1027.50
2023-02-03T00:18:29.280Z,1027.50
2023-02-03T00:19:00.510Z,1027.50
2023-02-03T00:19:32.813Z,1027.50
2023-02-03T00:20:02.593Z,1027.70
2023-02-03T00:20:34.725Z,1027.70
2023-02-03T00:21:04.633Z,1027.80
2023-02-03T00:21:35.622Z,1027.80
2023-02-03T00:22:06.707Z,1027.60
2023-02-03T00:22:37.449Z,1027.60
2023-02-03T00:23:08.385Z,1027.90
2023-02-03T00:23:39.522Z,1027.90
2023-02-03T00:24:10.438Z,1027.90
2023-02-03T00:24:41.614Z,1027.90
2023-02-03T00:25:13.317Z,1027.70
2023-02-03T00:25:43.640Z,1027.70
2023-02-03T00:26:14.425Z,1027.60
2023-02-03T00:26:45.599Z,1027.60
2023-02-03T00:27:16.577Z,1027.60
2023-02-03T00:27:47.723Z,1027.60
2023-02-03T00:28:18.660Z,1027.60
2023-02-03T00:28:49.601Z,1027.60
2023-02-03T00:29:20.679Z,1027.50
2023-02-03T00:29:51.697Z,1027.50
2023-02-03T00:30:23.324Z,1027.50
2023-02-03T00:30:53.344Z,1027.70
2023-02-03T00:31:24.547Z,1027.70
2023-02-03T00:31:55.872Z,1027.70
2023-02-03T00:32:26.511Z,1027.70
2023-02-03T00:32:57.652Z,1027.29
2023-02-03T00:33:28.425Z,1027.29
2023-02-03T00:33:59.624Z,1027.60
2023-02-03T00:34:30.454Z,1027.60
2023-02-03T00:35:01.653Z,1027.60
2023-02-03T00:35:32.407Z,1027.60
2023-02-03T00:36:03.509Z,1027.60
2023-02-03T00:36:34.633Z,1027.60
2023-02-03T00:37:06.013Z,1027.50
2023-02-03T00:37:37.118Z,1027.50
2023-02-03T00:38:08.132Z,1027.60
2023-02-03T00:38:38.374Z,1027.60
2023-02-03T00:39:09.744Z,1027.50
2023-02-03T00:39:40.519Z,1027.50
2023-02-03T00:40:11.763Z,1027.50
2023-02-03T00:40:42.386Z,1027.50
2023-02-03T00:41:13.664Z,1027.60
2023-02-03T00:41:44.650Z,1027.60
2023-02-03T00:42:16.045Z,1027.50
2023-02-03T00:42:46.999Z,1027.50
2023-02-03T00:43:17.807Z,1027.50
2023-02-03T00:43:48.737Z,1027.50
2023-02-03T00:44:19.657Z,1027.50
2023-02-03T00:44:50.732Z,1027.39
2023-02-03T00:45:22.893Z,1027.39
2023-02-03T00:45:52.496Z,1027.39
2023-02-03T00:46:23.541Z,1027.39
2023-02-03T00:46:54.401Z,1027.60
2023-02-03T00:47:25.378Z,1027.60
2023-02-03T00:47:56.440Z,1027.39
2023-02-03T00:48:27.427Z,1027.39
2023-02-03T00:48:58.572Z,1027.60
2023-02-03T00:49:29.412Z,1027.60
2023-02-03T00:50:01.038Z,1027.50
2023-02-03T00:50:31.382Z,1027.50
2023-02-03T00:51:03.386Z,1027.70
2023-02-03T00:51:33.348Z,1027.70
2023-02-03T00:52:04.563Z,1027.90
2023-02-03T00:52:35.638Z,1027.90
2023-02-03T00:53:06.967Z,1027.60
2023-02-03T00:53:37.608Z,1027.60
2023-02-03T00:54:08.361Z,1027.90
2023-02-03T00:54:39.659Z,1027.90
2023-02-03T00:55:11.108Z,1027.80
2023-02-03T00:55:41.615Z,1027.80
2023-02-03T00:56:12.382Z,1027.60
2023-02-03T00:56:43.430Z,1027.60
2023-02-03T00:57:14.775Z,1027.60
2023-02-03T00:57:45.738Z,1027.60
2023-02-03T00:58:16.839Z,1027.80
2023-02-03T00:58:47.686Z,1027.80
2023-02-03T00:59:18.406Z,1027.50
2023-02-03T00:59:49.641Z,1027.50
2023-02-03T01:00:22.805Z,1027.60
2023-02-03T01:00:51.746Z,1027.70
2023-02-03T01:01:22.701Z,1027.70
2023-02-03T01:01:53.699Z,1027.50
2023-02-03T01:02:24.510Z,1027.50
2023-02-03T01:02:55.904Z,1027.80
2023-02-03T01:03:27.545Z,1027.80
2023-02-03T01:03:57.616Z,1027.70
2023-02-03T01:04:28.819Z,1027.70
2023-02-03T01:04:59.725Z,1028.00
2023-02-03T01:05:30.852Z,1028.00
2023-02-03T01:06:01.617Z,1027.80
2023-02-03T01:06:32.642Z,1027.80
2023-02-03T01:07:03.728Z,1028.00
2023-02-03T01:07:34.656Z,1028.00
2023-02-03T01:08:05.926Z,1027.80
2023-02-03T01:08:36.467Z,1027.80
2023-02-03T01:09:07.574Z,1028.11
2023-02-03T01:09:38.620Z,1028.11
2023-02-03T01:10:10.859Z,1028.11
2023-02-03T01:10:40.856Z,1028.11
2023-02-03T01:11:11.653Z,1027.90
2023-02-03T01:11:42.608Z,1027.90
2023-02-03T01:12:13.460Z,1028.11
2023-02-03T01:12:44.614Z,1028.11
2023-02-03T01:13:16.379Z,1027.70
2023-02-03T01:13:46.840Z,1027.70
2023-02-03T01:14:17.546Z,1028.00
2023-02-03T01:14:48.839Z,1028.00
2023-02-03T01:15:20.646Z,1027.70
2023-02-03T01:15:50.576Z,1027.90
2023-02-03T01:16:21.583Z,1027.90
2023-02-03T01:16:52.690Z,1027.90
2023-02-03T01:17:23.469Z,1027.90
2023-02-03T01:17:54.467Z,1027.70
2023-02-03T01:18:25.864Z,1027.70
2023-02-03T01:18:56.605Z,1027.80
2023-02-03T01:19:27.635Z,1027.80
2023-02-03T01:19:58.557Z,1028.00
2023-02-03T01:20:30.215Z,1028.00
2023-02-03T01:21:00.679Z,1027.80
2023-02-03T01:21:31.608Z,1027.80
2023-02-03T01:22:02.643Z,1027.70
2023-02-03T01:22:34.295Z,1027.70
2023-02-03T01:23:04.640Z,1027.80
2023-02-03T01:23:37.603Z,1027.80
2023-02-03T01:24:06.645Z,1027.90
2023-02-03T01:24:42.068Z,1027.90
2023-02-03T01:25:09.000Z,1027.90
2023-02-03T01:25:39.671Z,1027.90
2023-02-03T01:26:10.404Z,1027.90
2023-02-03T01:26:41.627Z,1027.90
2023-02-03T01:27:12.719Z,1027.80
2023-02-03T01:27:43.749Z,1027.80
2023-02-03T01:28:14.729Z,1027.90
2023-02-03T01:28:45.697Z,1027.90
2023-02-03T01:29:16.655Z,1027.70
2023-02-03T01:29:47.605Z,1027.70
2023-02-03T01:30:19.642Z,1027.60
2023-02-03T01:30:49.979Z,1027.60
2023-02-03T01:31:20.755Z,1027.80
2023-02-03T01:31:51.968Z,1027.90
2023-02-03T01:32:22.971Z,1027.90
2023-02-03T01:32:53.623Z,1027.80
2023-02-03T01:33:24.696Z,1027.80
2023-02-03T01:33:55.680Z,1027.80
2023-02-03T01:34:26.649Z,1027.80
2023-02-03T01:34:57.742Z,1027.80
2023-02-03T01:35:29.466Z,1027.80
2023-02-03T01:35:59.960Z,1028.00
2023-02-03T01:36:30.710Z,1028.00
2023-02-03T01:37:01.655Z,1027.90
2023-02-03T01:37:32.730Z,1027.90
2023-02-03T01:38:03.769Z,1027.70
2023-02-03T01:38:34.659Z,1027.70
2023-02-03T01:39:05.773Z,1027.60
2023-02-03T01:39:36.508Z,1027.60
2023-02-03T01:40:07.989Z,1027.60
2023-02-03T01:40:38.735Z,1027.60
2023-02-03T01:41:10.185Z,1027.50
2023-02-03T01:41:40.773Z,1027.50
2023-02-03T01:42:11.748Z,1027.50
2023-02-03T01:42:42.728Z,1027.50
2023-02-03T01:43:13.776Z,1027.50
2023-02-03T01:43:44.727Z,1027.50
2023-02-03T01:44:15.726Z,1027.29
2023-02-03T01:44:46.781Z,1027.29
2023-02-03T01:45:18.481Z,1027.19
2023-02-03T01:45:48.858Z,1027.19
2023-02-03T01:46:19.898Z,1027.19
2023-02-03T01:46:50.765Z,1027.19
2023-02-03T01:47:21.620Z,1027.19
2023-02-03T01:47:53.394Z,1027.50
2023-02-03T01:48:23.934Z,1027.50
2023-02-03T01:48:54.691Z,1027.19
2023-02-03T01:49:25.604Z,1027.19
2023-02-03T01:49:56.752Z,1027.29
2023-02-03T01:50:28.501Z,1027.29
2023-02-03T01:50:58.811Z,1027.39
2023-02-03T01:51:29.954Z,1027.39
2023-02-03T01:52:00.850Z,1027.50
2023-02-03T01:52:31.851Z,1027.50
2023-02-03T01:53:02.944Z,1027.39
2023-02-03T01:53:33.665Z,1027.39
2023-02-03T01:54:05.721Z,1027.19
2023-02-03T01:54:35.916Z,1027.19
2023-02-03T01:55:07.826Z,1027.50
2023-02-03T01:55:37.611Z,1027.50
2023-02-03T01:56:08.975Z,1027.50
2023-02-03T01:56:39.770Z,1027.50
2023-02-03T01:57:10.612Z,1027.60
2023-02-03T01:57:41.810Z,1027.60
2023-02-03T01:58:13.012Z,1027.60
2023-02-03T01:58:43.586Z,1027.60
2023-02-03T01:59:14.973Z,1027.80
2023-02-03T01:59:46.003Z,1027.80
2023-02-03T02:00:18.196Z,1027.50
2023-02-03T02:00:48.054Z,1027.50
2023-02-03T02:01:19.734Z,1027.50
2023-02-03T02:01:49.731Z,1027.50
2023-02-03T02:02:20.781Z,1027.70
2023-02-03T02:02:51.751Z,1027.60
2023-02-03T02:03:23.274Z,1027.60
2023-02-03T02:03:53.949Z,1027.70
2023-02-03T02:04:24.937Z,1027.70
2023-02-03T02:04:55.622Z,1027.60
2023-02-03T02:05:27.291Z,1027.60
2023-02-03T02:05:58.697Z,1027.39
2023-02-03T02:06:29.222Z,1027.39
2023-02-03T02:06:59.974Z,1027.29
2023-02-03T02:07:31.001Z,1027.29
2023-02-03T02:08:01.660Z,1027.70
2023-02-03T02:08:32.651Z,1027.70
2023-02-03T02:09:03.922Z,1027.60
2023-02-03T02:09:34.933Z,1027.60
2023-02-03T02:10:05.939Z,1027.60
2023-02-03T02:10:37.315Z,1027.60
2023-02-03T02:11:08.009Z,1027.60
2023-02-03T02:11:39.067Z,1027.60
2023-02-03T02:12:09.650Z,1027.60
2023-02-03T02:12:40.650Z,1027.60
2023-02-03T02:13:11.692Z,1027.50
2023-02-03T02:13:42.892Z,1027.50
2023-02-03T02:14:13.656Z,1027.39
2023-02-03T02:14:45.051Z,1027.39
2023-02-03T02:15:16.925Z,1027.50
2023-02-03T02:15:47.232Z,1027.50
2023-02-03T02:16:18.151Z,1027.60
2023-02-03T02:16:48.666Z,1027.60
2023-02-03T02:17:20.070Z,1027.70
2023-02-03T02:17:51.222Z,1027.39
2023-02-03T02:18:21.729Z,1027.39
2023-02-03T02:18:53.204Z,1027.19
2023-02-03T02:19:23.892Z,1027.19
2023-02-03T02:19:55.252Z,1027.39
2023-02-03T02:20:26.597Z,1027.39
2023-02-03T02:20:57.085Z,1027.50
2023-02-03T02:21:27.651Z,1027.50
2023-02-03T02:21:59.010Z,1027.09
2023-02-03T02:22:30.700Z,1027.09
2023-02-03T02:23:00.584Z,1027.50
2023-02-03T02:23:31.820Z,1027.50
2023-02-03T02:24:02.850Z,1027.19
2023-02-03T02:24:33.981Z,1027.19
2023-02-03T02:25:05.363Z,1027.39
2023-02-03T02:25:38.696Z,1027.39
2023-02-03T02:26:06.994Z,1027.19
2023-02-03T02:26:38.093Z,1027.19
2023-02-03T02:27:09.053Z,1027.29
2023-02-03T02:27:40.634Z,1027.29
2023-02-03T02:28:11.006Z,1027.19
2023-02-03T02:28:42.062Z,1027.19
2023-02-03T02:29:12.659Z,1027.29
2023-02-03T02:29:43.936Z,1027.29
2023-02-03T02:30:15.713Z,1027.09
2023-02-03T02:30:46.078Z,1027.09
2023-02-03T02:31:17.243Z,1027.50
2023-02-03T02:31:48.265Z,1027.50
2023-02-03T02:32:18.939Z,1027.19
2023-02-03T02:32:50.193Z,1027.19
2023-02-03T02:33:21.098Z,1027.39
2023-02-03T02:33:52.914Z,1027.39
2023-02-03T02:34:23.203Z,1027.39
2023-02-03T02:34:53.732Z,1027.60
2023-02-03T02:35:25.503Z,1027.60
2023-02-03T02:35:55.807Z,1027.39
2023-02-03T02:36:27.115Z,1027.39
2023-02-03T02:36:57.697Z,1027.09
2023-02-03T02:37:28.762Z,1027.09
2023-02-03T02:38:00.415Z,1027.09
2023-02-03T02:38:31.075Z,1027.09
2023-02-03T02:39:01.752Z,1026.89
2023-02-03T02:39:32.759Z,1026.89
2023-02-03T02:40:04.410Z,1026.79
2023-02-03T02:40:34.978Z,1026.79
2023-02-03T02:41:06.054Z,1026.89
2023-02-03T02:41:37.036Z,1026.89
2023-02-03T02:42:07.972Z,1026.99
2023-02-03T02:42:39.017Z,1026.99
2023-02-03T02:43:09.689Z,1026.89
2023-02-03T02:43:40.948Z,1026.89
2023-02-03T02:44:12.025Z,1026.79
2023-02-03T02:44:42.896Z,1026.79
2023-02-03T02:45:15.621Z,1026.89
2023-02-03T02:45:45.093Z,1026.89
2023-02-03T02:46:15.973Z,1026.79
2023-02-03T02:46:47.020Z,1026.79
2023-02-03T02:47:18.050Z,1026.89
2023-02-03T02:47:49.234Z,1026.89
2023-02-03T02:48:20.006Z,1026.99
2023-02-03T02:48:51.186Z,1026.89
2023-02-03T02:49:21.890Z,1026.89
2023-02-03T02:49:53.196Z,1027.09
2023-02-03T02:50:25.429Z,1027.09
2023-02-03T02:50:55.124Z,1026.89
2023-02-03T02:51:25.995Z,1026.89
2023-02-03T02:51:57.089Z,1026.99
2023-02-03T02:52:28.169Z,1026.99
2023-02-03T02:52:58.852Z,1026.99
2023-02-03T02:53:29.825Z,1026.99
2023-02-03T02:54:00.693Z,1026.99
2023-02-03T02:54:32.035Z,1026.99
2023-02-03T02:55:03.264Z,1027.09
2023-02-03T02:55:34.032Z,1027.09
2023-02-03T02:56:04.730Z,1026.99
2023-02-03T02:56:36.125Z,1026.99
2023-02-03T02:57:08.136Z,1027.09
2023-02-03T02:57:38.180Z,1027.09
2023-02-03T02:58:10.606Z,1026.99
2023-02-03T02:58:40.251Z,1026.99
2023-02-03T02:59:11.336Z,1026.99
2023-02-03T02:59:41.855Z,1026.99
2023-02-03T03:00:14.077Z,1027.09
2023-02-03T03:00:44.137Z,1027.09
2023-02-03T03:01:15.173Z,1026.79
2023-02-03T03:01:45.833Z,1026.79
2023-02-03T03:02:16.839Z,1026.68
2023-02-03T03:02:48.061Z,1026.68
2023-02-03T03:03:19.315Z,1026.79
2023-02-03T03:03:49.917Z,1026.79
2023-02-03T03:04:21.063Z,1026.79
2023-02-03T03:04:52.435Z,1026.68
2023-02-03T03:05:23.343Z,1026.68
2023-02-03T03:05:53.876Z,1026.79
2023-02-03T03:06:25.094Z,1026.79
2023-02-03T03:06:56.173Z,1026.79
2023-02-03T03:07:27.216Z,1026.79
2023-02-03T03:07:58.040Z,1026.79
2023-02-03T03:08:28.956Z,1026.79
2023-02-03T03:08:59.882Z,1026.68
2023-02-03T03:09:31.235Z,1026.68
2023-02-03T03:10:02.145Z,1026.79
2023-02-03T03:10:33.210Z,1026.79
2023-02-03T03:11:03.982Z,1026.99
2023-02-03T03:11:35.246Z,1026.99
2023-02-03T03:12:06.234Z,1026.79
2023-02-03T03:12:37.140Z,1026.79
2023-02-03T03:13:08.369Z,1026.58
2023-02-03T03:13:39.244Z,1026.58
2023-02-03T03:14:10.253Z,1026.68
2023-02-03T03:14:40.926Z,1026.68
2023-02-03T03:15:12.841Z,1026.58
2023-02-03T03:15:43.021Z,1026.58
2023-02-03T03:16:14.104Z,1026.89
2023-02-03T03:16:45.074Z,1026.89
2023-02-03T03:17:16.100Z,1026.79
2023-02-03T03:17:47.083Z,1026.79
2023-02-03T03:18:18.201Z,1026.79
2023-02-03T03:18:49.092Z,1026.79
2023-02-03T03:19:20.092Z,1027.19
2023-02-03T03:19:51.420Z,1026.99
2023-02-03T03:20:22.745Z,1026.99
2023-02-03T03:20:53.249Z,1026.89
2023-02-03T03:21:24.203Z,1026.89
2023-02-03T03:21:54.844Z,1027.29
2023-02-03T03:22:25.901Z,1027.29
2023-02-03T03:22:57.131Z,1026.89
2023-02-03T03:23:28.261Z,1026.89
2023-02-03T03:23:59.276Z,1026.68
2023-02-03T03:24:30.187Z,1026.68
2023-02-03T03:25:01.611Z,1026.89
2023-02-03T03:25:32.434Z,1026.89
2023-02-03T03:26:03.185Z,1027.09
2023-02-03T03:26:34.257Z,1027.09
2023-02-03T03:27:05.251Z,1027.09
2023-02-03T03:27:35.948Z,1027.09
2023-02-03T03:28:07.429Z,1027.39
2023-02-03T03:28:40.315Z,1027.39
2023-02-03T03:29:08.850Z,1027.09
2023-02-03T03:29:41.401Z,1027.09
2023-02-03T03:30:12.966Z,1027.19
2023-02-03T03:30:43.133Z,1027.19
2023-02-03T03:31:12.955Z,1027.19
2023-02-03T03:31:44.079Z,1027.19
2023-02-03T03:32:15.091Z,1027.29
2023-02-03T03:32:46.741Z,1027.29
2023-02-03T03:33:17.316Z,1027.29
2023-02-03T03:33:47.939Z,1027.29
2023-02-03T03:34:19.736Z,1027.29
2023-02-03T03:34:50.203Z,1027.29
2023-02-03T03:35:21.738Z,1026.99
2023-02-03T03:35:51.915Z,1026.89
2023-02-03T03:36:23.082Z,1026.89
2023-02-03T03:36:53.974Z,1026.99
2023-02-03T03:37:25.503Z,1026.99
2023-02-03T03:37:58.296Z,1027.09
2023-02-03T03:38:27.583Z,1027.09
2023-02-03T03:38:57.898Z,1026.99
2023-02-03T03:39:29.627Z,1026.99
2023-02-03T03:40:00.254Z,1026.79
2023-02-03T03:40:32.215Z,1026.79
2023-02-03T03:41:02.603Z,1027.19
2023-02-03T03:41:33.740Z,1027.19
2023-02-03T03:42:04.425Z,1027.09
2023-02-03T03:42:35.605Z,1027.09
2023-02-03T03:43:06.489Z,1026.99
2023-02-03T03:43:37.279Z,1026.99
2023-02-03T03:44:08.094Z,1027.09
2023-02-03T03:44:39.021Z,1027.09
2023-02-03T03:45:11.256Z,1026.99
2023-02-03T03:45:41.381Z,1026.99
2023-02-03T03:46:12.031Z,1026.89
2023-02-03T03:46:42.967Z,1026.89
2023-02-03T03:47:14.231Z,1027.09
2023-02-03T03:47:45.501Z,1027.09
2023-02-03T03:48:15.957Z,1026.99
2023-02-03T03:48:47.333Z,1026.99
2023-02-03T03:49:18.260Z,1026.99
2023-02-03T03:49:49.170Z,1026.99
2023-02-03T03:50:21.154Z,1026.99
2023-02-03T03:50:51.316Z,1027.09
2023-02-03T03:51:22.361Z,1027.09
2023-02-03T03:51:53.233Z,1026.89
2023-02-03T03:52:24.299Z,1026.89
2023-02-03T03:52:55.220Z,1026.89
2023-02-03T03:53:26.035Z,1026.89
2023-02-03T03:53:57.035Z,1026.79
2023-02-03T03:54:28.133Z,1026.79
2023-02-03T03:54:59.291Z,1026.79
2023-02-03T03:55:30.920Z,1026.79
2023-02-03T03:56:01.300Z,1026.89
2023-02-03T03:56:32.045Z,1026.89
2023-02-03T03:57:03.364Z,1027.19
2023-02-03T03:57:34.008Z,1027.19
2023-02-03T03:58:05.076Z,1027.09
2023-02-03T03:58:35.971Z,1027.09
2023-02-03T03:59:06.993Z,1027.09
2023-02-03T03:59:38.037Z,1027.09
2023-02-03T04:00:12.343Z,1027.19
2023-02-03T04:00:40.716Z,1027.19
2023-02-03T04:01:12.537Z,1027.29
2023-02-03T04:01:42.228Z,1027.29
2023-02-03T04:02:14.695Z,1027.09
2023-02-03T04:02:44.568Z,1027.09
2023-02-03T04:03:15.204Z,1027.29
2023-02-03T04:03:46.210Z,1027.29
2023-02-03T04:04:17.522Z,1027.19
2023-02-03T04:04:48.435Z,1027.19
2023-02-03T04:05:19.895Z,1027.39
2023-02-03T04:05:50.453Z,1027.39
2023-02-03T04:06:21.445Z,1027.29
2023-02-03T04:06:52.433Z,1027.29
2023-02-03T04:07:23.781Z,1027.29
2023-02-03T04:07:54.899Z,1027.29
2023-02-03T04:08:25.051Z,1027.29
2023-02-03T04:08:56.783Z,1027.19
2023-02-03T04:09:27.726Z,1027.19
2023-02-03T04:09:58.035Z,1027.19
2023-02-03T04:10:29.916Z,1027.19
2023-02-03T04:11:00.572Z,1027.29
2023-02-03T04:11:31.250Z,1027.29
2023-02-03T04:12:02.361Z,1027.39
2023-02-03T04:12:33.100Z,1027.39
2023-02-03T04:13:04.829Z,1027.29
2023-02-03T04:13:35.899Z,1027.29
2023-02-03T04:14:06.614Z,1027.19
2023-02-03T04:14:37.018Z,1027.19
2023-02-03T04:15:09.765Z,1027.29
2023-02-03T04:15:39.733Z,1027.29
2023-02-03T04:16:10.932Z,1027.39
2023-02-03T04:16:41.082Z,1027.39
2023-02-03T04:17:13.070Z,1027.29
2023-02-03T04:17:43.170Z,1027.29
2023-02-03T04:18:14.370Z,1027.60
2023-02-03T04:18:44.976Z,1027.60
2023-02-03T04:19:16.411Z,1027.50
2023-02-03T04:19:47.292Z,1027.50
2023-02-03T04:20:18.656Z,1027.29
2023-02-03T04:20:49.142Z,1027.29
2023-02-03T04:21:20.622Z,1027.70
2023-02-03T04:21:51.341Z,1027.39
2023-02-03T04:22:22.528Z,1027.39
2023-02-03T04:22:53.334Z,1027.80
2023-02-03T04:23:24.130Z,1027.80
2023-02-03T04:23:55.324Z,1027.50
2023-02-03T04:24:26.090Z,1027.50
2023-02-03T04:24:57.576Z,1027.50
2023-02-03T04:25:28.705Z,1027.50
2023-02-03T04:25:59.301Z,1027.60
2023-02-03T04:26:30.621Z,1027.60
2023-02-03T04:27:01.075Z,1027.60
2023-02-03T04:27:32.501Z,1027.60
2023-02-03T04:28:03.230Z,1027.80
2023-02-03T04:28:34.101Z,1027.80
2023-02-03T04:29:05.283Z,1027.50
2023-02-03T04:29:36.339Z,1027.50
2023-02-03T04:30:07.992Z,1027.60
2023-02-03T04:30:38.483Z,1027.60
2023-02-03T04:31:09.425Z,1027.60
2023-02-03T04:31:42.125Z,1027.60
2023-02-03T04:32:11.174Z,1027.60
2023-02-03T04:32:43.237Z,1027.60
2023-02-03T04:33:13.398Z,1027.70
2023-02-03T04:33:44.597Z,1027.70
2023-02-03T04:34:15.497Z,1027.50
2023-02-03T04:34:46.157Z,1027.50
2023-02-03T04:35:18.113Z,1027.39
2023-02-03T04:35:48.146Z,1027.39
2023-02-03T04:36:19.468Z,1027.50
2023-02-03T04:36:50.490Z,1027.50
2023-02-03T04:37:21.497Z,1027.60
2023-02-03T04:37:52.500Z,1027.50
2023-02-03T04:38:23.403Z,1027.50
2023-02-03T04:38:54.947Z,1027.50
2023-02-03T04:39:25.696Z,1027.50
2023-02-03T04:39:56.731Z,1027.60
2023-02-03T04:40:28.181Z,1027.60
2023-02-03T04:40:58.464Z,1027.39
2023-02-03T04:41:29.443Z,1027.39
2023-02-03T04:42:00.741Z,1027.29
2023-02-03T04:42:31.346Z,1027.29
2023-02-03T04:43:02.489Z,1027.60
2023-02-03T04:43:33.102Z,1027.60
2023-02-03T04:44:04.440Z,1027.50
2023-02-03T04:44:35.366Z,1027.50
2023-02-03T04:45:07.438Z,1027.39
2023-02-03T04:45:37.506Z,1027.39
2023-02-03T04:46:08.417Z,1027.39
2023-02-03T04:46:39.395Z,1027.39
2023-02-03T04:47:10.444Z,1027.50
2023-02-03T04:47:41.463Z,1027.50
2023-02-03T04:48:12.777Z,1027.19
2023-02-03T04:48:43.690Z,1027.19
2023-02-03T04:49:14.530Z,1027.39
2023-02-03T04:49:45.544Z,1027.39
2023-02-03T04:50:17.316Z,1027.09
2023-02-03T04:50:47.818Z,1027.09
2023-02-03T04:51:18.894Z,1027.09
2023-02-03T04:51:49.911Z,1027.09
2023-02-03T04:52:20.609Z,1027.29
2023-02-03T04:52:51.736Z,1027.29
2023-02-03T04:53:23.159Z,1027.29
2023-02-03T04:53:53.250Z,1027.09
2023-02-03T04:54:24.716Z,1027.09
2023-02-03T04:54:55.218Z,1027.19
2023-02-03T04:55:27.275Z,1027.19
2023-02-03T04:55:57.143Z,1027.29
2023-02-03T04:56:28.410Z,1027.29
2023-02-03T04:56:59.234Z,1027.39
2023-02-03T04:57:30.970Z,1027.39
2023-02-03T04:58:02.023Z,1027.29
2023-02-03T04:58:32.180Z,1027.29
2023-02-03T04:59:03.935Z,1027.29
2023-02-03T04:59:35.448Z,1027.29
2023-02-03T05:00:06.963Z,1027.29
2023-02-03T05:00:36.996Z,1027.29
2023-02-03T05:01:08.001Z,1027.29
2023-02-03T05:01:38.825Z,1027.29
2023-02-03T05:02:09.939Z,1027.29
2023-02-03T05:02:40.996Z,1027.29
2023-02-03T05:03:13.226Z,1027.19
2023-02-03T05:03:42.272Z,1027.19
2023-02-03T05:04:14.816Z,1027.19
2023-02-03T05:04:44.501Z,1027.19
2023-02-03T05:05:17.052Z,1027.29
2023-02-03T05:05:46.733Z,1027.29
2023-02-03T05:06:17.738Z,1027.29
2023-02-03T05:06:48.555Z,1027.29
2023-02-03T05:07:19.725Z,1027.29
2023-02-03T05:07:50.857Z,1027.29
2023-02-03T05:08:21.571Z,1027.29
2023-02-03T05:08:52.934Z,1027.39
2023-02-03T05:09:23.611Z,1027.39
2023-02-03T05:09:54.410Z,1027.39
2023-02-03T05:10:26.329Z,1027.39
2023-02-03T05:10:56.365Z,1027.39
2023-02-03T05:11:27.656Z,1027.39
2023-02-03T05:11:58.379Z,1027.39
2023-02-03T05:12:29.242Z,1027.39
2023-02-03T05:13:00.740Z,1027.39
2023-02-03T05:13:31.261Z,1027.39
2023-02-03T05:14:02.214Z,1027.29
2023-02-03T05:14:33.141Z,1027.29
2023-02-03T05:15:05.376Z,1027.19
2023-02-03T05:15:35.454Z,1027.19
2023-02-03T05:16:06.658Z,1027.09
2023-02-03T05:16:37.672Z,1027.09
2023-02-03T05:17:08.574Z,1027.19
2023-02-03T05:17:39.718Z,1027.19
2023-02-03T05:18:10.289Z,1027.29
2023-02-03T05:18:41.534Z,1027.29
2023-02-03T05:19:12.474Z,1027.29
2023-02-03T05:19:43.636Z,1027.29
2023-02-03T05:20:15.250Z,1027.09
2023-02-03T05:20:45.635Z,1027.09
2023-02-03T05:21:16.287Z,1027.39
2023-02-03T05:21:47.690Z,1027.39
2023-02-03T05:22:18.653Z,1027.29
2023-02-03T05:22:49.905Z,1027.29
2023-02-03T05:23:20.661Z,1026.89
2023-02-03T05:23:51.444Z,1026.99
2023-02-03T05:24:22.948Z,1026.99
2023-02-03T05:24:53.211Z,1026.99
2023-02-03T05:25:25.580Z,1026.99
2023-02-03T05:25:55.294Z,1026.89
2023-02-03T05:26:26.821Z,1026.89
2023-02-03T05:26:57.279Z,1026.79
2023-02-03T05:27:28.659Z,1026.79
2023-02-03T05:27:59.688Z,1026.89
2023-02-03T05:28:30.291Z,1026.89
2023-02-03T05:29:01.645Z,1027.19
2023-02-03T05:29:32.277Z,1027.19
2023-02-03T05:30:04.925Z,1027.09
2023-02-03T05:30:34.426Z,1027.09
2023-02-03T05:31:05.639Z,1027.19
2023-02-03T05:31:36.401Z,1027.19
2023-02-03T05:32:08.084Z,1027.09
2023-02-03T05:32:38.600Z,1027.09
2023-02-03T05:33:09.708Z,1026.99
2023-02-03T05:33:40.329Z,1026.99
2023-02-03T05:34:11.275Z,1026.89
2023-02-03T05:34:44.931Z,1026.89
2023-02-03T05:35:13.895Z,1027.29
2023-02-03T05:35:47.156Z,1027.29
2023-02-03T05:36:15.741Z,1027.09
2023-02-03T05:36:52.449Z,1026.99
2023-02-03T05:37:17.712Z,1026.99
2023-02-03T05:37:48.357Z,1026.99
2023-02-03T05:38:19.759Z,1027.19
2023-02-03T05:38:52.786Z,1027.29
2023-02-03T05:39:21.616Z,1027.29
2023-02-03T05:39:52.349Z,1027.19
2023-02-03T05:40:24.298Z,1027.19
2023-02-03T05:40:57.676Z,1026.79
2023-02-03T05:41:25.609Z,1026.79
2023-02-03T05:41:58.417Z,1027.09
2023-02-03T05:42:27.376Z,1027.09
2023-02-03T05:42:58.360Z,1027.09
2023-02-03T05:43:30.154Z,1027.09
2023-02-03T05:44:00.725Z,1026.89
2023-02-03T05:44:31.888Z,1026.89
2023-02-03T05:45:03.475Z,1027.19
2023-02-03T05:45:34.295Z,1027.19
2023-02-03T05:46:04.441Z,1027.09
2023-02-03T05:46:36.148Z,1027.09
2023-02-03T05:47:07.153Z,1027.19
2023-02-03T05:47:38.073Z,1027.19
2023-02-03T05:48:08.463Z,1026.89
2023-02-03T05:48:39.664Z,1026.89
2023-02-03T05:49:10.394Z,1027.29
2023-02-03T05:49:42.079Z,1027.29
2023-02-03T05:50:13.317Z,1026.99
2023-02-03T05:50:44.043Z,1026.99
2023-02-03T05:51:14.996Z,1026.79
2023-02-03T05:51:46.605Z,1026.79
2023-02-03T05:52:17.036Z,1027.09
2023-02-03T05:52:47.774Z,1027.09
2023-02-03T05:53:18.780Z,1027.19
2023-02-03T05:53:50.034Z,1027.19
2023-02-03T05:54:20.347Z,1026.99
2023-02-03T05:54:52.500Z,1027.29
2023-02-03T05:55:23.374Z,1027.29
2023-02-03T05:55:53.596Z,1027.19
2023-02-03T05:56:24.403Z,1027.19
2023-02-03T05:56:55.975Z,1027.29
2023-02-03T05:57:27.106Z,1027.29
2023-02-03T05:57:57.785Z,1027.29
2023-02-03T05:58:28.745Z,1027.29
2023-02-03T05:59:00.257Z,1027.39
2023-02-03T05:59:30.815Z,1027.39
2023-02-03T06:00:03.562Z,1027.50
2023-02-03T06:00:33.465Z,1027.50
2023-02-03T06:01:03.936Z,1027.39
2023-02-03T06:01:35.448Z,1027.39
2023-02-03T06:02:06.513Z,1027.29
2023-02-03T06:02:36.395Z,1027.29
2023-02-03T06:03:08.146Z,1027.39
2023-02-03T06:03:39.322Z,1027.39
2023-02-03T06:04:09.971Z,1027.50
2023-02-03T06:04:40.948Z,1027.50
2023-02-03T06:05:12.331Z,1027.39
2023-02-03T06:05:42.820Z,1027.39
2023-02-03T06:06:23.538Z,1027.29
2023-02-03T06:06:44.882Z,1027.29
2023-02-03T06:07:18.134Z,1027.29
2023-02-03T06:07:47.222Z,1027.29
2023-02-03T06:08:18.388Z,1027.39
2023-02-03T06:08:48.856Z,1027.39
2023-02-03T06:09:20.615Z,1027.29
2023-02-03T06:09:50.868Z,1027.29
2023-02-03T06:10:22.012Z,1027.60
2023-02-03T06:10:53.325Z,1027.39
2023-02-03T06:11:24.077Z,1027.39
2023-02-03T06:11:55.459Z,1027.29
2023-02-03T06:12:27.523Z,1027.29
2023-02-03T06:12:56.899Z,1027.39
2023-02-03T06:13:28.281Z,1027.39
2023-02-03T06:13:58.925Z,1027.50
2023-02-03T06:14:29.675Z,1027.50
2023-02-03T06:15:02.059Z,1027.19